METAR Data
IDs: Format: Raw Decoded Include TAF

Data at: 0745 UTC 18 Nov 2018

PATA 180652Z AUTO 08005KT 10SM BKN120 M11/M16 A2966 RMK AO2 SLP051 T11061156 TSNO
PATA 180552Z 08008KT 10SM OVC120 M11/M16 A2967 RMK AO2 SLP055 T11111161 11106 21117 55006
PATA 180452Z 10007KT 10SM FEW120 BKN140 M11/M16 A2967 RMK AO2 SLP053 T11111161
PATA 180352Z 06009KT 10SM FEW120 BKN130 M11/M16 A2968 RMK AO2 SLP058 T11061161
PATA 180252Z 09005KT 10SM BKN130 M11/M16 A2969 RMK AO2 SLP061 T11111161 58009
PATA 180152Z 07010KT 10SM SCT170 M11/M17 A2970 RMK AO2 SLP066 T11111167
PATA 180052Z 07005KT 10SM CLR M11/M17 A2971 RMK AO2 SLP068 T11061167
PATA 172352Z 09007KT 10SM BKN170 M11/M17 A2972 RMK AO2 SLP070 T11061167 11100 21133 56013
PATA 172252Z 07009KT 10SM BKN150 M11/M17 A2973 RMK AO2 SLP073 T11061167
PATA 172152Z 07011KT 10SM BKN190 M11/M17 A2974 RMK AO2 SLP078 T11111167
PATA 172052Z 08006KT 10SM BKN180 M12/M17 A2975 RMK AO2 SLP083 T11171167 58004
PATA 171952Z 07010KT 10SM BKN150 M12/M17 A2976 RMK AO2 SLP086 T11171167
PATA 171852Z 10007KT 10SM BKN180 M12/M17 A2977 RMK AO2 SLP088 T11221172
PATA 171752Z 07006KT 10SM CLR M13/M18 A2977 RMK AO2 SLP087 4/006 933007 T11331178 11128 21144 56014
PATA 171652Z 08011KT 10SM CLR M13/M18 A2977 RMK AO2 SLP089 T11281178
PATA 171552Z 10007KT 10SM CLR M13/M18 A2980 RMK AO2 SLP097 T11331183
PATA 171452Z AUTO 10007KT 10SM CLR M13/M18 A2981 RMK AO2 SLP100 T11331183 56019 TSNO
PATA 171352Z AUTO 10009KT 10SM CLR M14/M18 A2981 RMK AO2 SLP104 T11391183 TSNO
PATA 171252Z AUTO 08005KT 10SM CLR M14/M19 A2984 RMK AO2 SLP111 T11441189 TSNO
PATA 171152Z AUTO 08006KT 10SM CLR M14/M19 A2986 RMK AO2 SLP120 T11391189 11139 21150 58020 TSNO
PATA 171052Z AUTO 08010KT 10SM CLR M14/M19 A2989 RMK AO2 SLP128 T11441189 TSNO
PATA 170952Z AUTO 09010KT 10SM CLR M14/M19 A2991 RMK AO2 SLP135 T11441189 TSNO
PATA 170852Z AUTO 12005KT 10SM CLR M14/M19 A2992 RMK AO2 SLP140 T11441189 411391167 56019 TSNO
PATA 170752Z AUTO 08012G17KT 10SM CLR M14/M19 A2993 RMK AO2 SLP143 T11441189 TSNO
PATA 170652Z AUTO 08013G18KT 10SM BKN100 M14/M19 A2995 RMK AO2 SLP151 T11441189 TSNO
PATA 170552Z 08008KT 10SM BKN100 M14/M19 A2998 RMK AO2 SLP160 T11441189 11144 21150 56023
PATA 170452Z 10011KT 10SM OVC100 M14/M19 A3000 RMK AO2 SLP166 T11441189
PATA 170352Z 09007KT 10SM FEW070 OVC095 M14/M19 A3003 RMK AO2 SLP177 T11441189
PATA 170252Z 07010KT 10SM OVC075 M14/M19 A3005 RMK AO2 SLP184 T11441189 58021
PATA 170152Z 08010KT 10SM BKN090 BKN120 M15/M19 A3008 RMK AO2 SLP195 T11501194
PATA 170052Z 09006KT 10SM BKN090 BKN120 M15/M19 A3008 RMK AO2 SLP195 T11501194
PATA 162352Z 09011G19KT 10SM BKN090 BKN120 M15/M20 A3011 RMK AO2 SLP205 T11501200 11150 21156 58013
PATA 162252Z 09009KT 10SM BKN095 M15/M20 A3013 RMK AO2 SLP211 T11501200
PATA 162152Z 09009KT 10SM BKN140 M15/M20 A3015 RMK AO2 SLP219 T11501200
PATA 162052Z 09008KT 10SM OVC140 M15/M20 A3015 RMK AO2 SLP218 T11501200 56011
PATA 161952Z 09007KT 10SM OVC150 M16/M20 A3016 RMK AO2 SLP221 T11561200